createdAt,value
2022-12-08T00:01:32.811Z,99691.19
2022-12-08T00:03:59.182Z,99687.97
2022-12-08T00:06:25.496Z,99694.81
2022-12-08T00:08:51.807Z,99699.91
2022-12-08T00:11:18.182Z,99704.66
2022-12-08T00:13:44.502Z,99700.31
2022-12-08T00:16:10.873Z,99714.94
2022-12-08T00:18:37.198Z,99711.38
2022-12-08T00:21:03.514Z,99713.31
2022-12-08T00:23:29.857Z,99717.75
2022-12-08T00:25:56.192Z,99721.72
2022-12-08T00:28:22.560Z,99720.53
2022-12-08T00:30:48.899Z,99728.09
2022-12-08T00:33:15.212Z,99732.00
2022-12-08T00:35:43.225Z,99739.22
2022-12-08T00:38:09.827Z,99733.19
2022-12-08T00:40:36.181Z,99733.19
2022-12-08T00:43:02.500Z,99737.22
2022-12-08T00:45:28.878Z,99740.00
2022-12-08T00:47:55.249Z,99754.34
2022-12-08T00:50:21.568Z,99748.31
2022-12-08T00:52:47.871Z,99751.09
2022-12-08T00:55:14.149Z,99750.75
2022-12-08T00:57:40.511Z,99759.91
2022-12-08T01:00:07.009Z,99760.31
2022-12-08T01:02:33.486Z,99754.72
2022-12-08T01:04:59.825Z,99757.88
2022-12-08T01:07:28.924Z,99758.25
2022-12-08T01:09:58.061Z,99761.84
2022-12-08T01:12:24.354Z,99761.44
2022-12-08T01:14:55.846Z,99771.34
2022-12-08T01:17:27.109Z,99763.84
2022-12-08T01:19:56.205Z,99773.38
2022-12-08T01:22:25.318Z,99772.97
2022-12-08T01:24:54.406Z,99782.91
2022-12-08T01:27:23.529Z,99776.16
2022-12-08T01:29:49.848Z,99776.94
2022-12-08T01:32:18.958Z,99774.97
2022-12-08T01:34:48.057Z,99769.41
2022-12-08T01:37:14.418Z,99769.47
2022-12-08T01:39:40.700Z,99768.59
2022-12-08T01:42:06.993Z,99770.59
2022-12-08T01:44:36.116Z,99766.25
2022-12-08T01:47:05.230Z,99776.53
2022-12-08T01:49:31.573Z,99768.66
2022-12-08T01:52:00.666Z,99777.81
2022-12-08T01:54:29.763Z,99788.06
2022-12-08T01:56:56.072Z,99785.69
2022-12-08T01:59:25.175Z,99781.31
2022-12-08T02:01:51.512Z,99788.06
2022-12-08T02:04:17.909Z,99782.53
2022-12-08T02:06:44.209Z,99779.78
2022-12-08T02:09:13.295Z,99784.56
2022-12-08T02:11:42.430Z,99782.50
2022-12-08T02:14:11.524Z,99777.75
2022-12-08T02:16:40.621Z,99778.94
2022-12-08T02:19:30.221Z,99776.22
2022-12-08T02:21:53.191Z,99786.13
2022-12-08T02:24:22.314Z,99781.38
2022-12-08T02:26:51.368Z,99787.31
2022-12-08T02:29:17.662Z,99786.53
2022-12-08T02:31:46.746Z,99777.81
2022-12-08T02:34:13.028Z,99780.53
2022-12-08T02:36:42.135Z,99773.78
2022-12-08T02:39:08.424Z,99773.44
2022-12-08T02:41:34.708Z,99776.56
2022-12-08T02:44:03.829Z,99784.97
2022-12-08T02:46:30.184Z,99778.94
2022-12-08T02:48:59.326Z,99782.97
2022-12-08T02:51:25.602Z,99790.09
2022-12-08T02:53:54.692Z,99792.88
2022-12-08T02:56:23.791Z,99796.84
2022-12-08T02:58:52.934Z,99800.47
2022-12-08T03:01:19.276Z,99801.63
2022-12-08T03:03:48.469Z,99811.94
2022-12-08T03:06:17.597Z,99805.59
2022-12-08T03:08:43.872Z,99804.38
2022-12-08T03:11:10.172Z,99804.38
2022-12-08T03:13:39.268Z,99809.16
2022-12-08T03:16:05.611Z,99810.34
2022-12-08T03:18:34.737Z,99812.28
2022-12-08T03:21:03.851Z,99820.66
2022-12-08T03:23:32.957Z,99826.22
2022-12-08T03:26:02.077Z,99819.47
2022-12-08T03:28:31.181Z,99827.81
2022-12-08T03:30:57.835Z,99831.00
2022-12-08T03:33:24.241Z,99834.16
2022-12-08T03:35:53.357Z,99830.59
2022-12-08T03:38:22.449Z,99837.72
2022-12-08T03:40:51.546Z,99829.78
2022-12-08T03:43:17.858Z,99842.06
2022-12-08T03:45:44.179Z,99837.72
2022-12-08T03:48:10.486Z,99832.94
2022-12-08T03:50:36.797Z,99838.47
2022-12-08T03:53:05.912Z,99840.91
2022-12-08T03:55:32.257Z,99839.69
2022-12-08T03:58:01.354Z,99836.94
2022-12-08T04:00:27.694Z,99835.34
2022-12-08T04:02:56.858Z,99838.94
2022-12-08T04:05:25.978Z,99848.09
2022-12-08T04:07:52.313Z,99846.88
2022-12-08T04:10:18.627Z,99849.66
2022-12-08T04:12:44.954Z,99848.06
2022-12-08T04:15:11.253Z,99850.06
2022-12-08T04:17:37.534Z,99858.03
2022-12-08T04:20:04.211Z,99848.44
2022-12-08T04:22:30.737Z,99852.03
2022-12-08T04:25:00.127Z,99861.16
2022-12-08T04:27:26.411Z,99860.34
2022-12-08T04:29:55.512Z,99867.50
2022-12-08T04:32:24.648Z,99872.63
2022-12-08T04:34:53.746Z,99864.34
2022-12-08T04:37:20.057Z,99866.31
2022-12-08T04:39:49.180Z,99874.25
2022-12-08T04:42:15.471Z,99875.84
2022-12-08T04:44:44.629Z,99874.66
2022-12-08T04:47:10.992Z,99878.63
2022-12-08T04:49:40.127Z,99884.19
2022-12-08T04:52:06.488Z,99882.22
2022-12-08T04:54:35.583Z,99875.47
2022-12-08T04:57:04.681Z,99871.47
2022-12-08T04:59:30.993Z,99875.88
2022-12-08T05:02:00.204Z,99883.00
2022-12-08T05:04:29.410Z,99882.22
2022-12-08T05:06:58.494Z,99892.50
2022-12-08T05:09:24.791Z,99892.56
2022-12-08T05:11:51.114Z,99892.91
2022-12-08T05:14:17.428Z,99896.09
2022-12-08T05:16:43.792Z,99898.88
2022-12-08T05:19:10.329Z,99895.28
2022-12-08T05:21:36.698Z,99909.59
2022-12-08T05:24:02.989Z,99912.38
2022-12-08T05:26:29.279Z,99904.84
2022-12-08T05:28:58.394Z,99897.69
2022-12-08T05:31:24.772Z,99894.91
2022-12-08T05:33:51.130Z,99893.69
2022-12-08T05:36:17.443Z,99906.84
2022-12-08T05:38:43.739Z,99895.69
2022-12-08T05:41:10.033Z,99897.69
2022-12-08T05:43:39.184Z,99903.25
2022-12-08T05:46:05.589Z,99896.09
2022-12-08T05:48:31.962Z,99896.09
2022-12-08T05:50:58.338Z,99895.69
2022-12-08T05:53:24.636Z,99891.72
2022-12-08T05:55:50.962Z,99897.28
2022-12-08T05:58:17.368Z,99904.81
2022-12-08T06:00:43.676Z,99910.00
2022-12-08T06:03:09.995Z,99921.47
2022-12-08T06:05:36.365Z,99929.03
2022-12-08T06:08:02.736Z,99934.97
2022-12-08T06:10:29.188Z,99933.00
2022-12-08T06:12:55.510Z,99944.06
2022-12-08T06:15:21.852Z,99946.44
2022-12-08T06:17:51.018Z,99951.59
2022-12-08T06:20:17.323Z,99952.78
2022-12-08T06:22:43.657Z,99961.94
2022-12-08T06:25:10.406Z,99953.97
2022-12-08T06:27:36.798Z,99965.53
2022-12-08T06:30:06.239Z,99962.31
2022-12-08T06:32:32.840Z,99967.84
2022-12-08T06:34:59.189Z,99970.22
2022-12-08T06:37:25.513Z,99965.06
2022-12-08T06:39:51.822Z,99957.97
2022-12-08T06:42:18.159Z,99965.06
2022-12-08T06:44:44.491Z,99962.34
2022-12-08T06:47:10.887Z,99960.31
2022-12-08T06:49:37.202Z,99975.81
2022-12-08T06:52:03.537Z,99973.75
2022-12-08T06:54:30.954Z,99973.41
2022-12-08T06:56:58.359Z,99977.75
2022-12-08T06:59:24.876Z,99982.13
2022-12-08T07:01:52.242Z,99974.56
2022-12-08T07:04:19.633Z,99984.88
2022-12-08T07:06:46.171Z,99984.09
2022-12-08T07:09:12.604Z,99984.44
2022-12-08T07:11:39.367Z,99984.44
2022-12-08T07:14:06.929Z,99988.00
2022-12-08T07:16:34.735Z,99985.63
2022-12-08T07:19:02.187Z,99989.97
2022-12-08T07:21:28.947Z,99992.78
2022-12-08T07:23:58.036Z,99997.75
2022-12-08T07:26:27.615Z,100010.94
2022-12-08T07:28:54.910Z,100020.84
2022-12-08T07:31:21.565Z,100022.75
2022-12-08T07:33:48.927Z,100024.34
2022-12-08T07:36:17.226Z,100026.63
2022-12-08T07:38:43.676Z,100018.69
2022-12-08T07:41:10.146Z,100020.31
2022-12-08T07:43:36.617Z,100013.59
2022-12-08T07:46:03.220Z,100021.81
2022-12-08T07:48:29.747Z,100031.19
2022-12-08T07:50:57.050Z,100022.84
2022-12-08T07:53:24.293Z,100026.03
2022-12-08T07:55:51.596Z,100021.66
2022-12-08T07:58:19.024Z,100023.16
2022-12-08T08:00:45.568Z,100026.78
2022-12-08T08:03:14.026Z,100022.38
2022-12-08T08:05:41.340Z,100027.16
2022-12-08T08:08:08.618Z,100024.81
2022-12-08T08:10:35.091Z,100029.13
2022-12-08T08:13:04.361Z,100029.56
2022-12-08T08:15:32.787Z,100028.75
2022-12-08T08:18:01.258Z,100029.56
2022-12-08T08:20:27.755Z,100029.25
2022-12-08T08:22:54.241Z,100033.56
2022-12-08T08:25:20.707Z,100030.81
2022-12-08T08:27:48.092Z,100037.50
2022-12-08T08:30:20.272Z,100046.22
2022-12-08T08:32:47.325Z,100039.09
2022-12-08T08:35:14.705Z,100045.47
2022-12-08T08:37:44.323Z,100036.28
2022-12-08T08:40:14.927Z,100041.00
2022-12-08T08:42:41.437Z,100026.66
2022-12-08T08:45:07.918Z,100030.50
2022-12-08T08:47:34.397Z,100027.69
2022-12-08T08:50:00.930Z,100028.81
2022-12-08T08:52:28.236Z,100030.72
2022-12-08T08:54:54.652Z,100031.94
2022-12-08T08:57:25.517Z,100037.41
2022-12-08T08:59:52.579Z,100045.34
2022-12-08T09:02:19.152Z,100048.09
2022-12-08T09:04:46.641Z,100037.72
2022-12-08T09:07:13.903Z,100044.84
2022-12-08T09:09:40.328Z,100047.97
2022-12-08T09:12:06.869Z,100041.25
2022-12-08T09:14:34.125Z,100039.22
2022-12-08T09:17:00.593Z,100040.75
2022-12-08T09:19:27.081Z,100042.72
2022-12-08T09:21:55.394Z,100039.53
2022-12-08T09:24:22.758Z,100042.31
2022-12-08T09:26:50.165Z,100031.56
2022-12-08T09:29:16.656Z,100031.09
2022-12-08T09:31:43.186Z,100020.88
2022-12-08T09:34:09.842Z,100029.94
2022-12-08T09:36:36.299Z,100029.94
2022-12-08T09:39:02.751Z,100030.31
2022-12-08T09:41:34.012Z,100022.75
2022-12-08T09:44:04.251Z,100027.91
2022-12-08T09:46:31.754Z,100015.97
2022-12-08T09:48:58.286Z,100024.69
2022-12-08T09:51:24.753Z,100011.22
2022-12-08T09:53:51.377Z,100011.63
2022-12-08T09:56:17.982Z,100012.38
2022-12-08T09:58:44.496Z,100007.22
2022-12-08T10:01:10.931Z,100011.63
2022-12-08T10:03:37.776Z,100005.28
2022-12-08T10:06:05.144Z,100012.84
2022-12-08T10:08:32.582Z,100007.25
2022-12-08T10:10:59.064Z,100009.56
2022-12-08T10:13:25.498Z,100009.56
2022-12-08T10:15:52.884Z,100006.38
2022-12-08T10:18:20.192Z,100005.66
2022-12-08T10:20:47.436Z,100002.47
2022-12-08T10:23:15.724Z,100001.28
2022-12-08T10:25:42.140Z,99998.13
2022-12-08T10:28:08.592Z,99992.56
2022-12-08T10:30:35.010Z,99990.56
2022-12-08T10:33:01.511Z,99992.19
2022-12-08T10:35:28.754Z,99986.22
2022-12-08T10:37:55.157Z,99988.25
2022-12-08T10:40:21.561Z,99991.84
2022-12-08T10:42:47.953Z,99988.28
2022-12-08T10:45:14.388Z,99984.72
2022-12-08T10:47:44.791Z,99976.78
2022-12-08T10:50:11.690Z,99983.13
2022-12-08T10:52:38.030Z,99978.78
2022-12-08T10:55:04.413Z,99970.00
2022-12-08T10:57:30.810Z,99973.22
2022-12-08T10:59:59.024Z,99973.59
2022-12-08T11:02:25.575Z,99972.78
2022-12-08T11:04:52.163Z,99968.47
2022-12-08T11:07:19.403Z,99972.00
2022-12-08T11:09:45.818Z,99967.28
2022-12-08T11:12:12.302Z,99966.53
2022-12-08T11:14:40.560Z,99960.59
2022-12-08T11:17:07.068Z,99963.38
2022-12-08T11:19:33.522Z,99955.81
2022-12-08T11:22:00.003Z,99955.44
2022-12-08T11:24:26.435Z,99950.69
2022-12-08T11:26:52.898Z,99950.69
2022-12-08T11:29:21.227Z,99937.59
2022-12-08T11:31:51.194Z,99939.94
2022-12-08T11:34:17.644Z,99947.50
2022-12-08T11:36:45.944Z,99942.72
2022-12-08T11:39:14.274Z,99945.13
2022-12-08T11:41:40.769Z,99945.94
2022-12-08T11:44:08.061Z,99931.25
2022-12-08T11:46:34.562Z,99942.34
2022-12-08T11:49:06.423Z,99933.22
2022-12-08T11:51:34.323Z,99925.69
2022-12-08T11:54:00.801Z,99932.44
2022-12-08T11:56:27.241Z,99930.88
2022-12-08T11:58:53.723Z,99937.19
2022-12-08T12:01:20.200Z,99926.91
2022-12-08T12:03:47.503Z,99927.69
2022-12-08T12:06:37.756Z,99934.00
2022-12-08T12:09:01.196Z,99936.41
2022-12-08T12:11:28.484Z,99934.41
2022-12-08T12:13:54.942Z,99941.56
2022-12-08T12:16:22.352Z,99940.78
2022-12-08T12:18:48.770Z,99929.28
2022-12-08T12:21:15.332Z,99932.88
2022-12-08T12:23:42.582Z,99925.31
2022-12-08T12:26:09.832Z,99918.56
2022-12-08T12:28:37.093Z,99918.56
2022-12-08T12:31:04.393Z,99918.16
2022-12-08T12:33:31.693Z,99919.34
2022-12-08T12:35:58.095Z,99911.78
2022-12-08T12:38:25.417Z,99903.47
2022-12-08T12:40:52.624Z,99901.50
2022-12-08T12:43:19.100Z,99904.28
2022-12-08T12:45:46.337Z,99907.03
2022-12-08T12:48:12.821Z,99913.38
2022-12-08T12:50:40.086Z,99897.91
2022-12-08T12:53:12.355Z,99904.28
2022-12-08T12:55:40.308Z,99901.91
2022-12-08T12:58:06.802Z,99891.56
2022-12-08T13:00:34.073Z,99893.56
2022-12-08T13:03:04.060Z,99886.44
2022-12-08T13:05:31.432Z,99887.19
2022-12-08T13:07:59.813Z,99880.88
2022-12-08T13:10:27.079Z,99882.06
2022-12-08T13:12:53.496Z,99881.28
2022-12-08T13:15:20.750Z,99885.66
2022-12-08T13:17:47.259Z,99882.88
2022-12-08T13:20:14.517Z,99886.44
2022-12-08T13:22:40.934Z,99895.53
2022-12-08T13:25:07.403Z,99888.78
2022-12-08T13:27:33.808Z,99880.88
2022-12-08T13:30:01.096Z,99887.63
2022-12-08T13:32:39.013Z,99888.44
2022-12-08T13:35:16.203Z,99886.84
2022-12-08T13:37:53.866Z,99880.09
2022-12-08T13:40:21.486Z,99877.31
2022-12-08T13:42:49.071Z,99874.53
2022-12-08T13:45:25.559Z,99872.16
2022-12-08T13:48:21.500Z,99872.94
2022-12-08T13:52:37.068Z,99865.84
2022-12-08T13:59:03.094Z,99865.75
2022-12-08T14:01:29.578Z,99863.38
2022-12-08T14:06:44.305Z,99864.22
2022-12-08T14:09:11.743Z,99867.75
2022-12-08T14:11:39.223Z,99862.63
2022-12-08T14:14:06.579Z,99869.75
2022-12-08T14:16:33.046Z,99869.34
2022-12-08T14:18:59.575Z,99864.22
2022-12-08T14:21:27.122Z,99865.84
2022-12-08T14:23:57.340Z,99862.66
2022-12-08T14:26:25.632Z,99863.47
2022-12-08T14:28:52.997Z,99864.22
2022-12-08T14:31:20.320Z,99872.13
2022-12-08T14:33:49.365Z,99876.09
2022-12-08T14:36:20.605Z,99868.97
2022-12-08T14:38:47.880Z,99871.75
2022-12-08T14:41:14.323Z,99876.50
2022-12-08T14:43:40.807Z,99873.63
2022-12-08T14:46:08.292Z,99874.47
2022-12-08T14:48:34.846Z,99877.66
2022-12-08T14:51:02.262Z,99872.91
2022-12-08T14:53:28.788Z,99870.94
2022-12-08T14:55:55.287Z,99874.88
2022-12-08T14:58:21.795Z,99863.75
2022-12-08T15:00:48.271Z,99866.13
2022-12-08T15:03:15.664Z,99869.28
2022-12-08T15:05:43.056Z,99868.13
2022-12-08T15:08:09.559Z,99862.56
2022-12-08T15:10:36.074Z,99861.75
2022-12-08T15:13:03.493Z,99857.00
2022-12-08T15:15:30.875Z,99856.56
2022-12-08T15:17:57.332Z,99861.34
2022-12-08T15:20:23.756Z,99861.34
2022-12-08T15:22:51.193Z,99853.78
2022-12-08T15:25:17.728Z,99855.75
2022-12-08T15:27:50.578Z,99851.41
2022-12-08T15:30:18.299Z,99856.97
2022-12-08T15:32:45.684Z,99858.94
2022-12-08T15:35:13.058Z,99855.78
2022-12-08T15:37:40.376Z,99853.00
2022-12-08T15:40:07.120Z,99858.94
2022-12-08T15:42:34.716Z,99861.72
2022-12-08T15:45:02.112Z,99860.94
2022-12-08T15:47:28.555Z,99856.16
2022-12-08T15:49:54.998Z,99863.31
2022-12-08T15:52:22.440Z,99863.31
2022-12-08T15:54:49.803Z,99866.50
2022-12-08T15:57:21.568Z,99866.50
2022-12-08T15:59:56.388Z,99861.31
2022-12-08T16:02:25.053Z,99861.31
2022-12-08T16:07:39.140Z,99863.25
2022-12-08T16:10:07.250Z,99860.53
2022-12-08T16:13:26.907Z,99866.88
2022-12-08T16:18:09.688Z,99864.91
2022-12-08T16:21:06.200Z,99866.88
2022-12-08T16:23:41.713Z,99860.13
2022-12-08T16:26:24.018Z,99858.91
2022-12-08T16:28:56.288Z,99856.94
2022-12-08T16:31:23.374Z,99862.50
2022-12-08T16:33:51.910Z,99856.53
2022-12-08T16:36:19.156Z,99848.59
2022-12-08T16:38:45.631Z,99857.28
2022-12-08T16:41:12.873Z,99852.53
2022-12-08T16:43:39.313Z,99846.16
2022-12-08T16:46:06.590Z,99854.47
2022-12-08T16:48:33.926Z,99862.44
2022-12-08T16:51:01.241Z,99861.63
2022-12-08T16:53:28.560Z,99862.84
2022-12-08T16:55:54.967Z,99854.09
2022-12-08T16:58:23.379Z,99857.22
2022-12-08T17:00:50.913Z,99848.09
2022-12-08T17:03:17.352Z,99860.34
2022-12-08T17:05:46.537Z,99851.28
2022-12-08T17:08:14.177Z,99857.25
2022-12-08T17:10:40.753Z,99860.84
2022-12-08T17:13:07.195Z,99848.91
2022-12-08T17:15:33.596Z,99848.56
2022-12-08T17:18:00.158Z,99846.94
2022-12-08T17:20:27.410Z,99842.13
2022-12-08T17:22:57.397Z,99851.06
2022-12-08T17:25:25.697Z,99849.81
2022-12-08T17:27:52.158Z,99846.63
2022-12-08T17:30:18.702Z,99843.44
2022-12-08T17:32:48.669Z,99850.19
2022-12-08T17:35:17.117Z,99845.81
2022-12-08T17:37:43.564Z,99855.78
2022-12-08T17:40:11.871Z,99851.47
2022-12-08T17:42:38.378Z,99857.06
2022-12-08T17:45:07.362Z,99856.69
2022-12-08T17:47:35.898Z,99857.06
2022-12-08T17:50:02.602Z,99860.25
2022-12-08T17:52:29.247Z,99857.47
2022-12-08T17:54:55.749Z,99863.47
2022-12-08T17:57:22.190Z,99850.41
2022-12-08T17:59:50.480Z,99865.44
2022-12-08T18:02:19.728Z,99859.88
2022-12-08T18:04:46.206Z,99861.53
2022-12-08T18:07:12.654Z,99870.22
2022-12-08T18:09:40.978Z,99873.38
2022-12-08T18:12:07.425Z,99868.28
2022-12-08T18:14:33.891Z,99866.66
2022-12-08T18:17:02.299Z,99866.28
2022-12-08T18:19:30.768Z,99868.69
2022-12-08T18:21:59.056Z,99865.09
2022-12-08T18:24:27.417Z,99860.75
2022-12-08T18:26:53.813Z,99859.94
2022-12-08T18:29:20.286Z,99859.13
2022-12-08T18:31:47.624Z,99859.47
2022-12-08T18:34:14.060Z,99858.59
2022-12-08T18:36:40.586Z,99848.31
2022-12-08T18:39:10.785Z,99850.22
2022-12-08T18:41:39.474Z,99852.69
2022-12-08T18:44:09.456Z,99849.50
2022-12-08T18:46:35.910Z,99855.38
2022-12-08T18:49:03.286Z,99846.31
2022-12-08T18:51:29.759Z,99839.47
2022-12-08T18:53:57.104Z,99846.66
2022-12-08T18:56:23.568Z,99848.59
2022-12-08T18:58:51.272Z,99848.59
2022-12-08T19:01:17.738Z,99847.81
2022-12-08T19:04:12.161Z,99836.28
2022-12-08T19:06:35.345Z,99840.69
2022-12-08T19:09:02.719Z,99838.31
2022-12-08T19:11:31.003Z,99841.06
2022-12-08T19:13:57.518Z,99849.03
2022-12-08T19:16:24.060Z,99851.38
2022-12-08T19:18:50.583Z,99854.16
2022-12-08T19:21:18.894Z,99854.19
2022-12-08T19:23:45.326Z,99851.34
2022-12-08T19:26:13.622Z,99854.09
2022-12-08T19:28:40.847Z,99854.44
2022-12-08T19:31:08.260Z,99851.63
2022-12-08T19:33:37.475Z,99852.81
2022-12-08T19:36:03.922Z,99849.19
2022-12-08T19:38:30.331Z,99855.47
2022-12-08T19:40:57.538Z,99852.19
2022-12-08T19:43:23.981Z,99844.03
2022-12-08T19:45:50.439Z,99847.16
2022-12-08T19:48:16.945Z,99844.03
2022-12-08T19:50:43.314Z,99840.13
2022-12-08T19:53:09.773Z,99843.25
2022-12-08T19:55:36.122Z,99838.53
2022-12-08T19:58:02.650Z,99838.13
2022-12-08T20:00:29.245Z,99845.69
2022-12-08T20:02:55.696Z,99845.69
2022-12-08T20:05:22.105Z,99842.91
2022-12-08T20:07:48.542Z,99840.91
2022-12-08T20:10:15.912Z,99844.50
2022-12-08T20:12:42.300Z,99844.16
2022-12-08T20:15:08.732Z,99846.94
2022-12-08T20:17:35.150Z,99850.44
2022-12-08T20:20:06.577Z,99842.50
2022-12-08T20:22:33.686Z,99851.63
2022-12-08T20:25:01.162Z,99849.09
2022-12-08T20:27:27.731Z,99851.00
2022-12-08T20:29:54.202Z,99861.44
2022-12-08T20:32:20.672Z,99852.72
2022-12-08T20:34:47.064Z,99853.78
2022-12-08T20:37:13.436Z,99848.31
2022-12-08T20:39:39.794Z,99846.03
2022-12-08T20:42:07.037Z,99851.47
2022-12-08T20:44:33.526Z,99847.69
2022-12-08T21:00:10.443Z,99856.72
2022-12-08T21:02:40.488Z,99855.09
2022-12-08T21:05:10.797Z,99859.09
2022-12-08T21:07:37.413Z,99854.03
2022-12-08T21:10:07.107Z,99858.06
2022-12-08T21:12:33.955Z,99846.88
2022-12-08T21:15:00.372Z,99855.22
2022-12-08T21:17:26.912Z,99856.09
2022-12-08T21:19:53.691Z,99847.72
2022-12-08T21:22:20.183Z,99860.84
2022-12-08T21:24:47.547Z,99854.66
2022-12-08T21:27:15.867Z,99853.56
2022-12-08T21:29:44.258Z,99858.63
2022-12-08T21:32:11.663Z,99851.25
2022-12-08T21:37:33.792Z,99857.63
2022-12-08T21:40:00.740Z,99856.00
2022-12-08T21:42:33.903Z,99857.19
2022-12-08T21:45:02.805Z,99849.75
2022-12-08T21:47:32.142Z,99846.63
2022-12-08T21:52:43.013Z,99845.19
2022-12-08T21:55:09.503Z,99844.81
2022-12-08T21:57:36.814Z,99846.06
2022-12-08T22:00:03.478Z,99843.28
2022-12-08T22:02:33.232Z,99847.31
2022-12-08T22:07:47.104Z,99840.59
2022-12-08T22:10:13.748Z,99831.91
2022-12-08T22:12:40.323Z,99835.19
2022-12-08T22:15:07.787Z,99840.31
2022-12-08T22:17:34.604Z,99839.84
2022-12-08T22:22:56.753Z,99834.28
2022-12-08T22:25:23.353Z,99833.09
2022-12-08T22:27:49.759Z,99834.31
2022-12-08T22:30:16.307Z,99835.59
2022-12-08T22:32:42.860Z,99837.56
2022-12-08T22:37:54.427Z,99839.16
2022-12-08T22:40:21.191Z,99836.78
2022-12-08T22:42:48.478Z,99837.53
2022-12-08T22:45:15.170Z,99834.38
2022-12-08T22:47:41.573Z,99844.63
2022-12-08T22:53:02.104Z,99831.44
2022-12-08T22:55:30.543Z,99839.00
2022-12-08T22:57:56.969Z,99840.22
2022-12-08T23:00:23.439Z,99841.00
2022-12-08T23:02:50.815Z,99837.00
2022-12-08T23:08:02.330Z,99838.31
2022-12-08T23:10:32.249Z,99838.28
2022-12-08T23:13:03.541Z,99834.75
2022-12-08T23:15:32.431Z,99838.75
2022-12-08T23:17:58.892Z,99838.31
2022-12-08T23:23:09.531Z,99837.47
2022-12-08T23:25:36.071Z,99832.81
2022-12-08T23:28:02.455Z,99837.97
2022-12-08T23:30:31.636Z,99844.75
2022-12-08T23:32:58.932Z,99841.16
2022-12-08T23:38:23.106Z,99841.97
2022-12-08T23:40:52.310Z,99843.53
2022-12-08T23:43:18.829Z,99844.81
2022-12-08T23:45:45.406Z,99846.31
2022-12-08T23:48:12.763Z,99843.16
2022-12-08T23:53:23.324Z,99836.41
2022-12-08T23:55:49.756Z,99835.66
2022-12-08T23:58:17.048Z,99837.97
